createdAt,value
2018-01-31T02:02:11.466Z,91.08
2018-01-31T02:02:47.629Z,91.17
2018-01-31T02:03:27.858Z,91.17
2018-01-31T02:04:11.013Z,90.51
2018-01-31T02:04:51.663Z,90.61
2018-01-31T02:05:31.964Z,90.51
2018-01-31T02:06:12.246Z,90.7
2018-01-31T02:06:56.238Z,90.99
2018-01-31T02:07:36.541Z,90.7
2018-01-31T02:08:18.770Z,90.22
2018-01-31T02:08:58.761Z,90.42
2018-01-31T02:10:27.387Z,90.61
2018-01-31T02:11:14.561Z,90.13
2018-01-31T02:13:11.712Z,90.36
2018-01-31T02:18:00.886Z,90.27
2018-01-31T02:18:44.094Z,90.27
2018-01-31T02:19:24.731Z,90.17
2018-01-31T02:20:08.139Z,90.36
2018-01-31T02:20:50.683Z,90.36
2018-01-31T02:21:31.220Z,90.36
2018-01-31T02:22:11.772Z,90.36
2018-01-31T02:22:52.985Z,89.89
2018-01-31T02:23:36.771Z,90.36
2018-01-31T02:24:17.270Z,90.17
2018-01-31T02:24:57.714Z,89.98
2018-01-31T02:25:38.113Z,90.46
2018-01-31T02:26:18.553Z,90.17
2018-01-31T02:27:02.333Z,90.65
2018-01-31T02:37:31.982Z,91.03
2018-01-31T02:42:12.024Z,88.98
2018-01-31T02:42:59.617Z,88.98
2018-01-31T02:43:53.852Z,89.26
2018-01-31T02:44:36.052Z,88.98
2018-01-31T02:45:14.888Z,88.79
2018-01-31T02:45:56.917Z,89.07
2018-01-31T02:46:38.867Z,89.65
2018-01-31T02:51:54.474Z,88.45
2018-01-31T03:06:10.459Z,87.21
2018-01-31T03:15:59.270Z,86.26
2018-01-31T03:17:53.004Z,85.73
2018-01-31T03:18:40.179Z,85.73
2018-01-31T03:19:21.491Z,85.73
2018-01-31T03:20:02.724Z,85.35
2018-01-31T03:20:43.994Z,85.93
2018-01-31T03:21:26.737Z,85.35
2018-01-31T03:22:07.252Z,85.73
2018-01-31T03:22:47.838Z,85.64
2018-01-31T03:23:28.506Z,85.97
2018-01-31T03:24:10.953Z,85.73
2018-01-31T03:24:51.701Z,86.36
2018-01-31T03:33:22.243Z,86.93
2018-01-31T03:35:02.156Z,87.4
2018-01-31T03:37:10.896Z,86.49
2018-01-31T03:38:10.016Z,86.49
2018-01-31T03:41:03.900Z,86.11
2018-01-31T03:47:36.804Z,87.4
2018-01-31T03:48:17.251Z,87.21
2018-01-31T03:48:57.916Z,87.21
2018-01-31T03:49:38.651Z,87.4
2018-01-31T03:50:19.236Z,87.02
2018-01-31T03:50:59.721Z,87.79
2018-01-31T03:51:45.630Z,88.17
2018-01-31T03:52:26.246Z,87.88
2018-01-31T03:53:06.751Z,88.17
2018-01-31T03:53:47.136Z,88.26
2018-01-31T03:54:27.524Z,88.26
2018-01-31T03:55:07.999Z,87.79
2018-01-31T03:55:57.956Z,87.21
2018-01-31T03:56:37.424Z,86.74
2018-01-31T03:57:17.772Z,87.16
2018-01-31T03:57:58.397Z,87.21
2018-01-31T03:58:40.295Z,87.69
2018-01-31T03:59:19.367Z,87.12
2018-01-31T04:00:05.530Z,87.69
2018-01-31T04:00:49.352Z,87.21
2018-01-31T04:01:29.733Z,87.88
2018-01-31T04:02:10.956Z,87.5
2018-01-31T04:02:52.688Z,87.5
2018-01-31T04:03:33.292Z,88.26
2018-01-31T04:48:02.447Z,99.17
2018-01-31T04:48:40.998Z,99.13
2018-01-31T04:49:21.809Z,98.32
2018-01-31T04:50:02.096Z,98.46
2018-01-31T04:53:06.038Z,98.84
2018-01-31T04:55:25.830Z,97.51
2018-01-31T04:56:13.154Z,97.22
2018-01-31T04:56:53.941Z,97.03
2018-01-31T04:57:35.346Z,97.41
2018-01-31T05:00:15.555Z,95.79
2018-01-31T05:03:53.384Z,94.7
2018-01-31T05:18:45.886Z,92.27
2018-01-31T06:30:13.374Z,89.89
2018-01-31T06:31:07.293Z,89.69
2018-01-31T06:32:00.866Z,89.22
2018-01-31T06:32:56.515Z,89.12
2018-01-31T06:35:06.773Z,89.69
2018-01-31T06:36:01.965Z,89.69
2018-01-31T06:36:45.996Z,89.4
2018-01-31T06:37:31.261Z,89.89
2018-01-31T06:38:14.252Z,89.6
2018-01-31T06:38:54.669Z,90.36
2018-01-31T06:39:35.068Z,90.36
2018-01-31T06:40:15.574Z,90.17
2018-01-31T06:40:55.962Z,90.74
2018-01-31T06:41:36.387Z,91.03
2018-01-31T06:42:16.812Z,91.5
2018-01-31T06:42:57.407Z,91.13
2018-01-31T06:43:37.684Z,90.74
2018-01-31T06:44:18.165Z,90.84
2018-01-31T06:44:58.624Z,90.17
2018-01-31T06:45:44.824Z,89.98
2018-01-31T06:50:12.836Z,90.45
2018-01-31T06:51:09.664Z,90.74
2018-01-31T06:52:03.747Z,90.22
2018-01-31T06:53:00.502Z,90.36
2018-01-31T06:53:56.501Z,90.74
2018-01-31T06:54:49.622Z,89.4
2018-01-31T06:55:46.588Z,89.79
2018-01-31T06:56:43.612Z,88.17
2018-01-31T06:57:36.099Z,88.64
2018-01-31T06:58:31.952Z,88.45
2018-01-31T06:59:24.571Z,87.93
2018-01-31T07:00:23.287Z,87.6
2018-01-31T07:01:16.879Z,87.83
2018-01-31T07:02:10.970Z,87.26
2018-01-31T07:03:05.375Z,87.35
2018-01-31T07:03:58.348Z,86.69
2018-01-31T07:07:35.257Z,86.88
2018-01-31T07:08:30.621Z,86.4
2018-01-31T07:09:13.815Z,86.4
2018-01-31T07:09:55.216Z,86.49
2018-01-31T07:10:36.338Z,86.4
2018-01-31T07:11:17.479Z,86.11
2018-01-31T07:11:58.142Z,86.78
2018-01-31T07:12:39.250Z,86.21
2018-01-31T07:13:19.355Z,86.11
2018-01-31T07:14:00.624Z,86.59
2018-01-31T07:14:42.195Z,86.59
2018-01-31T07:18:41.026Z,86.49
2018-01-31T07:20:24.798Z,84.78
2018-01-31T07:21:05.449Z,84.72
2018-01-31T07:21:45.862Z,84.59
2018-01-31T07:22:27.179Z,84.59
2018-01-31T07:23:07.541Z,84.97
2018-01-31T07:23:51.900Z,85.73
2018-01-31T07:24:34.954Z,86.59
2018-01-31T07:25:16.277Z,86.11
2018-01-31T07:25:57.496Z,86.59
2018-01-31T07:26:38.527Z,87.26
2018-01-31T07:27:18.679Z,87.26
2018-01-31T07:28:00.212Z,87.4
2018-01-31T07:28:50.618Z,86.98
2018-01-31T07:29:32.561Z,87.31
2018-01-31T07:30:13.747Z,87.35
2018-01-31T07:30:58.632Z,87.12
2018-01-31T07:31:41.389Z,87.31
2018-01-31T07:32:21.830Z,87.83
2018-01-31T07:33:02.624Z,86.83
2018-01-31T07:33:44.312Z,87.26
2018-01-31T07:34:25.002Z,87.21
2018-01-31T07:35:05.460Z,87.69
2018-01-31T07:35:45.977Z,87.4
2018-01-31T07:36:27.652Z,88.07
2018-01-31T07:37:08.221Z,88.07
2018-01-31T07:37:52.411Z,88.55
2018-01-31T07:39:52.675Z,87.64
2018-01-31T07:43:06.098Z,86.98
2018-01-31T07:43:59.669Z,86.21
2018-01-31T07:44:49.931Z,85.73
2018-01-31T07:45:30.292Z,85.73
2018-01-31T07:46:44.308Z,86.21
2018-01-31T08:02:08.051Z,87.88
2018-01-31T08:30:00.979Z,86.65
2018-01-31T08:35:36.476Z,85.83
2018-01-31T08:39:47.175Z,82.4
2018-01-31T08:40:32.966Z,82.11
2018-01-31T08:42:27.696Z,83.25
2018-01-31T08:43:25.300Z,82.59
2018-01-31T08:44:10.785Z,82.68
2018-01-31T08:44:54.491Z,81.92
2018-01-31T08:49:26.441Z,81.82
2018-01-31T08:50:09.251Z,81.73
2018-01-31T08:50:50.505Z,82.11
2018-01-31T08:51:32.258Z,81.73
2018-01-31T08:52:14.276Z,81.82
2018-01-31T08:55:13.101Z,79.77
2018-01-31T08:55:56.242Z,80.2
2018-01-31T08:56:36.711Z,80.77
2018-01-31T08:57:20.018Z,81.73
2018-01-31T08:58:01.713Z,82.3
2018-01-31T08:58:42.331Z,82.01
2018-01-31T08:59:23.101Z,82.59
2018-01-31T09:00:04.961Z,82.68
2018-01-31T09:06:04.929Z,80.68
2018-01-31T09:11:17.045Z,80.49
2018-01-31T09:11:59.307Z,80.3
2018-01-31T09:12:40.352Z,80.81
2018-01-31T09:13:21.070Z,81.2
2018-01-31T09:14:02.038Z,80.91
2018-01-31T09:14:44.735Z,79.86
2018-01-31T09:15:26.958Z,79.38
2018-01-31T09:16:07.893Z,79.28
2018-01-31T09:16:49.180Z,79.38
2018-01-31T09:17:31.578Z,79.67
2018-01-31T09:18:15.868Z,80.24
2018-01-31T09:18:58.483Z,80.24
2018-01-31T09:19:39.720Z,79.96
2018-01-31T09:20:20.879Z,79.63
2018-01-31T09:21:02.957Z,79.63
2018-01-31T09:21:44.342Z,80.3
2018-01-31T09:22:26.234Z,80.49
2018-01-31T09:23:09.485Z,80.11
2018-01-31T09:23:52.872Z,79.06
2018-01-31T09:24:34.052Z,79.82
2018-01-31T09:25:15.353Z,80.3
2018-01-31T09:25:55.692Z,79.82
2018-01-31T09:26:36.426Z,79.82
2018-01-31T09:27:20.226Z,80.58
2018-01-31T09:28:01.317Z,81.15
2018-01-31T09:28:46.967Z,80.39
2018-01-31T09:29:28.359Z,80.49
2018-01-31T09:30:09.816Z,79.82
2018-01-31T09:30:50.707Z,80.11
2018-01-31T09:31:31.638Z,80.2
2018-01-31T09:32:14.641Z,79.82
2018-01-31T09:32:55.522Z,80.01
2018-01-31T09:33:36.964Z,80.3
2018-01-31T09:34:21.215Z,80.49
2018-01-31T09:35:02.737Z,79.72
2018-01-31T09:35:44.014Z,79.53
2018-01-31T09:36:24.704Z,80.39
2018-01-31T09:37:05.555Z,79.28
2018-01-31T09:37:48.358Z,79.19
2018-01-31T09:38:32.193Z,79.77
2018-01-31T09:39:12.517Z,79.19
2018-01-31T09:39:53.022Z,79.1
2018-01-31T09:40:34.561Z,79.25
2018-01-31T09:41:15.255Z,78.96
2018-01-31T09:41:55.879Z,79.15
2018-01-31T09:42:36.978Z,78.77
2018-01-31T09:43:17.905Z,78.86
2018-01-31T09:43:59.413Z,80.2
2018-01-31T09:44:39.936Z,80.39
2018-01-31T09:45:21.481Z,78.72
2018-01-31T09:46:01.919Z,78.67
2018-01-31T09:46:42.544Z,78.58
2018-01-31T09:47:23.069Z,78.67
2018-01-31T09:48:03.914Z,78.67
2018-01-31T09:48:45.749Z,79.15
2018-01-31T09:49:27.147Z,79.53
2018-01-31T09:50:07.723Z,78.58
2018-01-31T09:50:48.182Z,79.35
2018-01-31T09:51:32.517Z,78.67
2018-01-31T09:52:13.182Z,78.67
2018-01-31T09:52:55.037Z,79.15
2018-01-31T09:53:40.174Z,79.72
2018-01-31T09:54:21.856Z,79.63
2018-01-31T09:55:01.672Z,79.15
2018-01-31T09:55:42.668Z,79.25
2018-01-31T09:56:23.310Z,79.15
2018-01-31T09:57:05.781Z,80.11
2018-01-31T09:57:46.932Z,80.68
2018-01-31T09:58:27.386Z,79.82
2018-01-31T09:59:09.411Z,79.91
2018-01-31T09:59:50.184Z,78.77
2018-01-31T10:00:31.440Z,78.58
2018-01-31T10:01:12.252Z,78.96
2018-01-31T10:01:53.035Z,78.39
2018-01-31T10:02:34.914Z,78.01
2018-01-31T10:03:15.308Z,78.49
2018-01-31T10:03:56.048Z,78.81
2018-01-31T10:04:36.425Z,78.33
2018-01-31T10:42:31.083Z,79.63
2018-01-31T10:43:59.220Z,79.82
2018-01-31T10:44:40.035Z,78.77
2018-01-31T10:45:21.521Z,78.77
2018-01-31T10:46:04.885Z,79.53
2018-01-31T10:48:40.131Z,83.16
2018-01-31T10:49:46.062Z,81.92
2018-01-31T10:50:47.779Z,80.2
2018-01-31T10:51:58.357Z,80.3
2018-01-31T10:53:05.788Z,80.96
2018-01-31T10:57:33.959Z,79.25
2018-01-31T10:58:15.451Z,79.15
2018-01-31T10:58:56.134Z,78.58
2018-01-31T11:03:27.245Z,78.58
2018-01-31T11:04:25.577Z,79
2018-01-31T11:05:23.923Z,78.72
2018-01-31T11:06:23.586Z,78.14
2018-01-31T11:07:16.530Z,77.67
2018-01-31T11:08:15.299Z,78.33
2018-01-31T11:09:15.849Z,77.57
2018-01-31T11:10:13.353Z,77.47
2018-01-31T11:11:12.494Z,77.28
2018-01-31T11:12:07.384Z,77.47
2018-01-31T11:17:05.612Z,76.62
2018-01-31T11:18:01.088Z,76.23
2018-01-31T11:19:00.096Z,76.33
2018-01-31T11:19:59.707Z,76.71
2018-01-31T11:20:58.809Z,77.28
2018-01-31T11:21:59.838Z,76.01
2018-01-31T11:22:55.987Z,76.67
2018-01-31T11:23:50.286Z,77.67
2018-01-31T11:24:47.384Z,77.28
2018-01-31T11:25:42.943Z,77.19
2018-01-31T11:26:36.045Z,76.23
2018-01-31T11:28:34.450Z,77.53
2018-01-31T11:29:31.317Z,78.58
2018-01-31T11:30:27.170Z,78.49
2018-01-31T11:31:20.814Z,78.67
2018-01-31T11:32:16.804Z,78.2
2018-01-31T11:33:12.458Z,77.28
2018-01-31T11:34:12.082Z,77.19
2018-01-31T11:35:14.619Z,77.28
2018-01-31T11:36:13.364Z,76.14
2018-01-31T11:37:16.336Z,75.85
2018-01-31T11:45:21.508Z,75.18
2018-01-31T11:46:03.794Z,74.99
2018-01-31T11:46:44.920Z,74.61
2018-01-31T11:47:26.166Z,74.99
2018-01-31T11:48:07.104Z,74.99
2018-01-31T11:48:47.653Z,75.18
2018-01-31T11:49:28.154Z,74.9
2018-01-31T11:50:08.908Z,75.18
2018-01-31T11:50:49.853Z,75.09
2018-01-31T11:51:30.907Z,75.18
2018-01-31T11:52:11.653Z,75.18
2018-01-31T11:52:52.503Z,74.8
2018-01-31T11:53:32.900Z,75.18
2018-01-31T11:54:13.900Z,75.37
2018-01-31T11:54:54.708Z,74.52
2018-01-31T11:55:36.473Z,74.71
2018-01-31T11:56:17.886Z,74.71
2018-01-31T11:56:58.685Z,74.23
2018-01-31T11:57:39.673Z,74.52
2018-01-31T11:58:22.666Z,74.99
2018-01-31T11:59:03.330Z,74.99
2018-01-31T11:59:44.405Z,75.47
2018-01-31T12:00:25.937Z,75.66
2018-01-31T12:01:10.340Z,74.9
2018-01-31T12:01:50.943Z,74.46
2018-01-31T12:02:31.580Z,74.23
2018-01-31T12:03:14.883Z,74.32
2018-01-31T12:03:55.191Z,73.56
2018-01-31T12:04:36.259Z,74.13
2018-01-31T12:05:17.100Z,73.66
2018-01-31T12:05:58.276Z,74.32
2018-01-31T12:06:39.551Z,74.23
2018-01-31T12:07:21.187Z,74.32
2018-01-31T12:08:01.648Z,74.23
2018-01-31T12:08:42.350Z,74.32
2018-01-31T12:09:23.328Z,74.32
2018-01-31T12:10:04.206Z,74.61
2018-01-31T12:10:45.879Z,74.37
2018-01-31T12:11:26.324Z,73.32
2018-01-31T12:12:07.033Z,72.83
2018-01-31T12:12:47.805Z,72.93
2018-01-31T12:13:28.574Z,73.03
2018-01-31T12:14:08.988Z,73.03
2018-01-31T12:14:50.523Z,72.74
2018-01-31T12:15:30.589Z,72.55
2018-01-31T12:16:12.986Z,71.5
2018-01-31T12:16:53.751Z,72.64
2018-01-31T12:17:34.191Z,73.5
2018-01-31T12:18:15.358Z,73.12
2018-01-31T12:20:12.400Z,72.74
2018-01-31T12:28:08.602Z,72.74
2018-01-31T12:28:50.461Z,72.55
2018-01-31T12:29:31.069Z,72.26
2018-01-31T12:30:11.624Z,72.55
2018-01-31T12:30:53.309Z,72.83
2018-01-31T12:31:33.555Z,72.55
2018-01-31T12:32:14.733Z,72.26
2018-01-31T12:32:55.820Z,71.88
2018-01-31T12:33:36.973Z,72.36
2018-01-31T12:34:17.731Z,72.26
2018-01-31T12:34:58.731Z,71.78
2018-01-31T12:35:38.874Z,71.88
2018-01-31T12:36:19.568Z,72.36
2018-01-31T12:37:01.277Z,71.78
2018-01-31T12:37:41.610Z,72.26
2018-01-31T12:38:22.764Z,72.64
2018-01-31T12:39:04.580Z,72.64
2018-01-31T12:39:46.174Z,72.64
2018-01-31T12:40:27.877Z,72.74
2018-01-31T12:41:09.013Z,73.41
2018-01-31T12:41:49.846Z,72.64
2018-01-31T12:42:31.034Z,73.22
2018-01-31T12:43:11.681Z,72.93
2018-01-31T12:43:53.402Z,72.45
2018-01-31T12:44:34.226Z,73.22
2018-01-31T12:45:15.198Z,73.32
2018-01-31T12:45:59.133Z,73.32
2018-01-31T12:46:43.290Z,72.93
2018-01-31T12:47:25.378Z,72.36
2018-01-31T12:48:08.401Z,73.32
2018-01-31T12:48:48.488Z,73.41
2018-01-31T12:49:29.191Z,73.32
2018-01-31T12:50:12.217Z,72.83
2018-01-31T12:50:55.523Z,72.55
2018-01-31T12:51:36.231Z,72.74
2018-01-31T12:52:19.516Z,73.16
2018-01-31T12:53:00.527Z,72.58
2018-01-31T12:53:42.320Z,71.92
2018-01-31T12:54:24.099Z,72.58
2018-01-31T12:55:05.182Z,72.11
2018-01-31T12:55:46.478Z,71.92
2018-01-31T12:56:27.772Z,71.72
2018-01-31T12:57:08.931Z,72.49
2018-01-31T12:57:49.960Z,72.2
2018-01-31T12:58:31.383Z,72.39
2018-01-31T12:59:11.974Z,71.98
2018-01-31T12:59:52.941Z,72.55
2018-01-31T13:00:34.243Z,72.93
2018-01-31T13:01:15.789Z,72.74
2018-01-31T13:01:56.470Z,72.93
2018-01-31T13:02:37.254Z,73.03
2018-01-31T13:03:17.594Z,73.12
2018-01-31T13:04:00.683Z,73.5
2018-01-31T13:04:40.135Z,73.6
2018-01-31T13:05:27.245Z,73.22
2018-01-31T13:06:03.813Z,73.32
2018-01-31T13:06:45.794Z,73.79
2018-01-31T13:07:29.238Z,73.32
2018-01-31T13:08:11.050Z,73.32
2018-01-31T13:08:54.446Z,73.03
2018-01-31T13:09:37.564Z,73.6
2018-01-31T13:10:18.283Z,73.98
2018-01-31T13:11:00.479Z,74.46
2018-01-31T13:13:03.211Z,74.65
2018-01-31T13:26:01.793Z,78.47
2018-01-31T13:26:40.876Z,78.05
2018-01-31T13:27:21.520Z,78.43
2018-01-31T13:28:02.818Z,78.52
2018-01-31T13:28:44.610Z,79.19
2018-01-31T13:29:26.610Z,79.1
2018-01-31T13:36:35.082Z,79.57
2018-01-31T13:37:19.250Z,80.05
2018-01-31T13:37:59.803Z,80.43
2018-01-31T13:38:40.804Z,80.24
2018-01-31T13:39:21.022Z,80.33
2018-01-31T13:40:01.837Z,80.72
2018-01-31T13:40:42.122Z,80.43
2018-01-31T13:41:22.742Z,81.2
2018-01-31T13:42:04.552Z,80.81
2018-01-31T13:42:44.988Z,80.43
2018-01-31T13:43:25.961Z,79.86
2018-01-31T13:44:06.860Z,80.62
2018-01-31T13:44:47.345Z,80.81
2018-01-31T13:45:28.558Z,80.77
2018-01-31T13:46:08.947Z,80.68
2018-01-31T13:46:50.505Z,80.58
2018-01-31T13:47:31.590Z,81.2
2018-01-31T13:48:11.811Z,80.81
2018-01-31T13:48:52.427Z,81.58
2018-01-31T13:49:33.182Z,81.29
2018-01-31T13:50:14.410Z,80.49
2018-01-31T13:50:55.059Z,81.01
2018-01-31T13:51:36.149Z,81.38
2018-01-31T13:52:16.936Z,81.67
2018-01-31T13:52:58.215Z,81.2
2018-01-31T13:53:38.036Z,80.81
2018-01-31T13:54:18.415Z,79.48
2018-01-31T13:54:59.180Z,80.39
2018-01-31T13:55:39.615Z,81.15
2018-01-31T13:56:20.179Z,81.1
2018-01-31T13:57:02.544Z,81.01
2018-01-31T13:57:43.003Z,81.25
2018-01-31T13:58:23.794Z,82.01
2018-01-31T13:59:04.293Z,82.2
2018-01-31T14:09:54.766Z,84.88
2018-01-31T14:10:34.306Z,83.73
2018-01-31T14:11:15.738Z,83.54
2018-01-31T14:11:56.514Z,84.11
2018-01-31T14:12:37.460Z,84.11
2018-01-31T14:13:18.773Z,83.83
2018-01-31T14:13:59.319Z,82.97
2018-01-31T14:14:40.726Z,82.68
2018-01-31T14:15:21.397Z,82.68
2018-01-31T14:16:02.363Z,82.3
2018-01-31T14:16:43.191Z,82.07
2018-01-31T14:17:23.663Z,82.64
2018-01-31T14:18:04.023Z,83.31
2018-01-31T14:18:44.503Z,82.35
2018-01-31T14:19:26.331Z,83.59
2018-01-31T14:20:06.338Z,82.92
2018-01-31T14:20:46.816Z,82.83
2018-01-31T14:21:27.210Z,82.54
2018-01-31T14:22:07.748Z,82.07
2018-01-31T14:22:48.122Z,82.07
2018-01-31T14:23:28.769Z,82.64
2018-01-31T14:24:09.440Z,83.31
2018-01-31T14:24:50.181Z,82.45
2018-01-31T14:25:31.154Z,82.64
2018-01-31T14:26:11.674Z,81.88
2018-01-31T14:26:52.896Z,81.88
2018-01-31T14:27:33.371Z,82.45
2018-01-31T14:28:14.249Z,82.45
2018-01-31T14:28:54.554Z,82.54
2018-01-31T14:29:35.215Z,82.26
2018-01-31T14:30:15.633Z,82.26
2018-01-31T14:30:56.480Z,83.21
2018-01-31T14:31:36.950Z,82.54
2018-01-31T14:32:17.782Z,82.45
2018-01-31T14:32:58.994Z,82.35
2018-01-31T14:33:40.173Z,82.35
2018-01-31T14:34:20.818Z,82.45
2018-01-31T14:35:01.197Z,82.54
2018-01-31T14:35:41.762Z,82.54
2018-01-31T14:36:22.465Z,82.35
2018-01-31T14:37:03.500Z,82.54
2018-01-31T14:37:44.750Z,83.12
2018-01-31T14:38:27.146Z,83.97
2018-01-31T14:39:08.568Z,83.78
2018-01-31T14:39:50.179Z,83.84
2018-01-31T14:40:30.894Z,83.84
2018-01-31T14:41:11.417Z,83.84
2018-01-31T14:41:52.120Z,84.5
2018-01-31T14:42:32.832Z,84.98
2018-01-31T14:43:13.642Z,84.03
2018-01-31T14:43:54.673Z,84.22
2018-01-31T14:44:35.167Z,85.27
2018-01-31T14:45:15.998Z,84.6
2018-01-31T14:45:56.859Z,84.5
2018-01-31T14:46:37.421Z,84.98
2018-01-31T14:47:17.916Z,85.17
2018-01-31T14:47:59.518Z,84.98
2018-01-31T14:48:40.067Z,84.88
2018-01-31T14:49:20.554Z,84.79
2018-01-31T14:50:02.501Z,84.6
2018-01-31T14:50:42.956Z,84.69
2018-01-31T14:51:24.107Z,84.6
2018-01-31T14:52:04.538Z,84.88
2018-01-31T14:52:45.068Z,85.46
2018-01-31T14:53:26.377Z,85.17
2018-01-31T14:54:08.703Z,85.64
2018-01-31T14:54:49.921Z,86.32
2018-01-31T14:55:35.053Z,86.51
2018-01-31T14:56:18.014Z,85.78
2018-01-31T14:56:59.812Z,84.07
2018-01-31T14:57:40.858Z,83.88
2018-01-31T14:58:24.865Z,84.26
2018-01-31T14:59:05.846Z,83.69
2018-01-31T14:59:47.358Z,83.21
2018-01-31T15:00:28.063Z,84.07
2018-01-31T15:01:09.366Z,83.69
2018-01-31T15:01:49.878Z,83.21
2018-01-31T15:02:31.319Z,83.84
2018-01-31T15:03:14.039Z,83.69
2018-01-31T15:03:54.826Z,83.12
2018-01-31T15:04:35.272Z,83.4
2018-01-31T15:05:16.813Z,83.69
2018-01-31T15:05:59.566Z,83.78
2018-01-31T15:06:40.937Z,83.74
2018-01-31T15:07:21.998Z,82.89
2018-01-31T15:08:02.948Z,83.65
2018-01-31T15:08:44.604Z,83.93
2018-01-31T15:09:25.678Z,83.84
2018-01-31T15:10:06.949Z,84.03
2018-01-31T15:10:47.747Z,83.07
2018-01-31T15:11:28.258Z,82.98
2018-01-31T15:12:08.822Z,83.36
2018-01-31T15:12:49.253Z,83.45
2018-01-31T15:13:30.472Z,83.26
2018-01-31T15:14:11.589Z,83.07
2018-01-31T15:14:52.805Z,83.55
2018-01-31T15:15:33.383Z,83.36
2018-01-31T15:16:14.937Z,83.45
2018-01-31T15:16:55.339Z,83.45
2018-01-31T15:17:36.646Z,82.89
2018-01-31T15:18:17.818Z,83.84
2018-01-31T15:18:58.590Z,84.12
2018-01-31T15:19:40.385Z,84.12
2018-01-31T15:20:20.966Z,83.65
2018-01-31T15:21:01.627Z,83.51
2018-01-31T15:21:43.982Z,85.13
2018-01-31T15:22:24.324Z,85.13
2018-01-31T15:23:05.041Z,85.7
2018-01-31T15:23:46.167Z,85.51
2018-01-31T15:24:26.545Z,85.6
2018-01-31T15:25:08.769Z,85.55
2018-01-31T15:25:50.018Z,85.08
2018-01-31T15:26:30.521Z,84.84
2018-01-31T15:27:11.778Z,83.32
2018-01-31T15:27:52.348Z,82.93
2018-01-31T15:28:33.309Z,83.61
2018-01-31T15:29:14.050Z,83.51
2018-01-31T15:29:55.752Z,83.07
2018-01-31T15:30:36.319Z,83.17
2018-01-31T15:31:17.136Z,83.55
2018-01-31T15:31:57.664Z,82.75
2018-01-31T15:32:38.514Z,82.93
2018-01-31T15:33:19.330Z,82.37
2018-01-31T15:35:21.246Z,83.03
2018-01-31T15:36:06.489Z,83.41
2018-01-31T15:36:47.401Z,82.93
2018-01-31T15:37:28.475Z,81.98
2018-01-31T15:38:10.454Z,81.13
2018-01-31T15:38:50.850Z,81.6
2018-01-31T15:39:31.825Z,81.41
2018-01-31T15:40:14.921Z,80.84
2018-01-31T15:40:55.339Z,81.98
2018-01-31T15:41:36.446Z,81.7
2018-01-31T15:42:17.705Z,81.79
2018-01-31T15:42:58.288Z,81.51
2018-01-31T15:43:38.972Z,82.37
2018-01-31T15:48:49.062Z,82.32
2018-01-31T15:50:43.428Z,81.37
2018-01-31T15:51:25.081Z,81.28
2018-01-31T15:52:05.721Z,82.9
2018-01-31T15:52:46.039Z,82.14
2018-01-31T15:53:26.553Z,82.42
2018-01-31T15:54:07.560Z,81.85
2018-01-31T15:54:48.534Z,82.61
2018-01-31T15:55:29.604Z,82.51
2018-01-31T15:56:10.031Z,81.95
2018-01-31T15:56:50.425Z,82.37
2018-01-31T15:57:31.899Z,82.27
2018-01-31T15:58:12.376Z,82.08
2018-01-31T15:58:52.888Z,81.13
2018-01-31T15:59:33.392Z,82.08
2018-01-31T16:01:56.096Z,80.33
2018-01-31T16:02:38.690Z,81.56
2018-01-31T16:03:20.111Z,81.28
2018-01-31T16:04:01.010Z,82.14
2018-01-31T16:49:39.033Z,84.81
2018-01-31T16:50:20.953Z,85.38
2018-01-31T16:51:02.044Z,86.9
2018-01-31T16:51:44.220Z,87.28
2018-01-31T16:52:26.287Z,86.33
2018-01-31T16:53:08.056Z,85.38
2018-01-31T16:53:49.957Z,85.57
2018-01-31T16:54:32.167Z,84.91
2018-01-31T16:55:14.392Z,85.47
2018-01-31T16:55:54.326Z,86.14
2018-01-31T16:56:35.369Z,86.71
2018-01-31T16:57:17.066Z,85.76
2018-01-31T16:57:58.390Z,85.1
2018-01-31T16:58:38.961Z,84.81
2018-01-31T16:59:19.723Z,84.81
2018-01-31T17:00:00.216Z,84.81
2018-01-31T17:00:40.644Z,84.43
2018-01-31T17:01:22.156Z,83.76
2018-01-31T17:02:02.951Z,85.47
2018-01-31T17:04:04.308Z,85.86
2018-01-31T17:04:44.828Z,86.19
2018-01-31T17:05:25.331Z,87.05
2018-01-31T17:06:05.744Z,87.34
2018-01-31T17:06:46.368Z,86.57
2018-01-31T17:07:27.411Z,86
2018-01-31T17:08:08.330Z,87.14
2018-01-31T17:10:11.493Z,85.62
2018-01-31T17:11:53.580Z,87.14
2018-01-31T17:12:37.928Z,87.24
2018-01-31T17:13:17.529Z,88
2018-01-31T17:25:12.156Z,87.05
2018-01-31T17:26:02.537Z,86.57
2018-01-31T17:26:42.508Z,86.95
2018-01-31T17:27:23.116Z,85.43
2018-01-31T17:28:03.743Z,86.19
2018-01-31T17:28:45.541Z,87.05
2018-01-31T17:29:25.522Z,87.14
2018-01-31T17:30:06.792Z,86.76
2018-01-31T17:30:47.681Z,85.62
2018-01-31T17:31:28.781Z,84.48
2018-01-31T17:32:10.538Z,86.38
2018-01-31T17:32:52.098Z,86.38
2018-01-31T17:33:32.657Z,86.47
2018-01-31T17:34:13.471Z,85.43
2018-01-31T17:34:54.330Z,84.86
2018-01-31T17:35:34.865Z,85.53
2018-01-31T17:36:15.909Z,85.43
2018-01-31T17:36:56.442Z,86.76
2018-01-31T17:37:36.862Z,85.43
2018-01-31T17:38:17.750Z,86.71
2018-01-31T17:38:58.751Z,85.57
2018-01-31T17:39:40.727Z,84.81
2018-01-31T17:40:20.991Z,83.76
2018-01-31T17:41:01.916Z,85.47
2018-01-31T17:41:42.973Z,85.19
2018-01-31T17:42:23.485Z,83.67
2018-01-31T17:43:04.097Z,83.19
2018-01-31T17:43:44.489Z,83
2018-01-31T17:44:25.062Z,83.48
2018-01-31T17:45:05.482Z,83.67
2018-01-31T17:45:47.648Z,83.67
2018-01-31T17:46:28.799Z,83.48
2018-01-31T17:54:55.856Z,81.38
2018-01-31T18:13:49.370Z,79.62
2018-01-31T18:14:30.310Z,78.96
2018-01-31T18:15:11.513Z,79.05
2018-01-31T18:15:53.261Z,78.96
2018-01-31T18:16:33.655Z,78.96
2018-01-31T18:17:14.568Z,79.43
2018-01-31T18:17:59.332Z,78.57
2018-01-31T18:18:39.665Z,78.96
2018-01-31T18:26:13.250Z,79.05
2018-01-31T18:26:51.748Z,78.96
2018-01-31T18:27:31.445Z,79.91
2018-01-31T18:28:14.162Z,79.62
2018-01-31T18:28:54.918Z,79.43
2018-01-31T18:29:36.077Z,79.05
2018-01-31T18:30:17.209Z,79.14
2018-01-31T18:30:58.364Z,80.66
2018-01-31T18:31:41.394Z,80.1
2018-01-31T18:32:22.440Z,79.19
2018-01-31T18:33:03.463Z,78.23
2018-01-31T18:33:43.878Z,78.52
2018-01-31T18:34:24.644Z,78.48
2018-01-31T18:35:07.588Z,79.19
2018-01-31T18:35:47.887Z,79.09
2018-01-31T18:36:29.831Z,78.8
2018-01-31T18:37:10.259Z,78.52
2018-01-31T18:37:51.220Z,79.47
2018-01-31T18:38:32.164Z,79.09
2018-01-31T18:39:12.542Z,78.52
2018-01-31T18:39:53.556Z,78.61
2018-01-31T18:53:59.840Z,79.33
2018-01-31T19:17:20.663Z,78.14
2018-01-31T19:22:28.472Z,78.04
2018-01-31T19:25:52.831Z,78.46
2018-01-31T19:28:40.254Z,78.27
2018-01-31T19:30:01.093Z,77.37
2018-01-31T19:31:13.622Z,77.56
2018-01-31T19:33:28.884Z,78.52
2018-01-31T19:34:09.965Z,79.19
2018-01-31T19:37:53.897Z,78.08
2018-01-31T19:39:07.176Z,77.7
2018-01-31T19:41:16.902Z,77.61
2018-01-31T19:43:05.081Z,77.7
2018-01-31T19:43:45.310Z,78.33
2018-01-31T19:44:25.712Z,78.08
2018-01-31T19:45:06.214Z,77.37
2018-01-31T19:45:47.510Z,78.71
2018-01-31T19:46:28.002Z,78.52
2018-01-31T19:47:08.342Z,78.99
2018-01-31T19:47:48.891Z,77.95
2018-01-31T19:48:29.197Z,78.14
2018-01-31T19:49:09.739Z,78.42
2018-01-31T19:49:50.074Z,78.61
2018-01-31T19:50:30.442Z,78.52
2018-01-31T19:51:10.848Z,78.52
2018-01-31T19:51:51.530Z,79.19
2018-01-31T19:52:31.763Z,79.19
2018-01-31T19:53:12.023Z,78.99
2018-01-31T19:53:52.516Z,78.61
2018-01-31T19:54:32.811Z,79.19
2018-01-31T19:55:13.215Z,79.38
2018-01-31T19:55:53.693Z,79.09
2018-01-31T19:56:34.120Z,79.14
2018-01-31T19:57:14.537Z,79.91
2018-01-31T19:57:55.015Z,80
2018-01-31T19:58:35.429Z,79.81
2018-01-31T19:59:15.960Z,80.19
2018-01-31T19:59:56.431Z,79.91
2018-01-31T20:00:36.954Z,80.29
2018-01-31T20:01:17.211Z,80.95
2018-01-31T20:01:57.739Z,80.95
2018-01-31T20:21:52.202Z,78.56
2018-01-31T20:22:38.888Z,78.17
2018-01-31T20:23:19.700Z,78.94
2018-01-31T20:24:00.942Z,78.85
2018-01-31T20:24:41.538Z,79.8
2018-01-31T20:25:22.007Z,79.13
2018-01-31T20:26:02.430Z,77.51
2018-01-31T20:26:44.084Z,76.23
2018-01-31T20:27:24.286Z,76.9
2018-01-31T20:28:04.905Z,77.09
2018-01-31T20:28:45.333Z,78.52
2018-01-31T20:29:25.976Z,78.04
2018-01-31T20:30:06.480Z,78.52
2018-01-31T20:30:47.334Z,79.33
2018-01-31T20:31:29.255Z,79.05
2018-01-31T20:32:14.708Z,79.91
2018-01-31T20:32:59.712Z,79.52
2018-01-31T20:33:43.148Z,81.71